Time;durP1;ratioP1;P1;durP2;ratioP2;P2;SDS_P1;SDS_P2;PMS_P1;PMS_P2;Temp;Humidity;BMP_temperature;BMP_pressure;BME280_temperature;BME280_humidity;BME280_pressure;Samples;Min_cycle;Max_cycle;Signal;HPM_P1;HPM_P2
2022/09/13 00:00:34;;;;;;;29.67;21.50;;;17.90;99.90;;;;;;5056558;28;20080;-65
2022/09/13 00:03:00;;;;;;;31.13;22.23;;;18.10;99.90;;;;;;5054205;28;20053;-65
2022/09/13 00:05:26;;;;;;;32.28;23.00;;;18.00;99.90;;;;;;5039910;28;20037;-65
2022/09/13 00:07:52;;;;;;;29.25;21.83;;;18.10;99.90;;;;;;5060418;28;20145;-64
2022/09/13 00:10:18;;;;;;;30.90;21.67;;;18.10;99.90;;;;;;5046216;28;20120;-65
2022/09/13 00:12:44;;;;;;;31.08;22.65;;;18.20;99.90;;;;;;5054778;28;20398;-64
2022/09/13 00:15:10;;;;;;;34.35;22.30;;;18.10;99.90;;;;;;5054886;28;20048;-64
2022/09/13 00:17:36;;;;;;;31.77;22.67;;;18.20;99.90;;;;;;5053544;28;20049;-65
2022/09/13 00:20:02;;;;;;;33.33;23.05;;;18.00;99.90;;;;;;5053837;28;20055;-64
2022/09/13 00:22:28;;;;;;;34.83;23.80;;;19.00;99.90;;;;;;5053555;28;20045;-64
2022/09/13 00:24:53;;;;;;;35.55;24.67;;;18.40;99.90;;;;;;5054804;28;20040;-64
2022/09/13 00:27:19;;;;;;;37.28;24.92;;;18.00;99.90;;;;;;5054474;28;20645;-64
2022/09/13 00:29:45;;;;;;;35.63;25.27;;;18.20;99.90;;;;;;5054843;28;20123;-65
2022/09/13 00:32:10;;;;;;;33.05;24.10;;;18.20;99.90;;;;;;5053316;28;20449;-64
2022/09/13 00:34:36;;;;;;;30.98;23.05;;;19.40;99.90;;;;;;5053468;28;20067;-65
2022/09/13 00:37:02;;;;;;;34.60;22.75;;;18.30;99.90;;;;;;5054631;28;20041;-64
2022/09/13 00:39:27;;;;;;;31.15;23.25;;;18.10;99.90;;;;;;5054539;28;20032;-65
2022/09/13 00:41:53;;;;;;;32.38;22.85;;;18.00;99.90;;;;;;5054710;28;20041;-64
2022/09/13 00:44:56;;;;;;;34.15;23.65;;;18.20;99.90;;;;;;5055645;28;20110;-63
2022/09/13 00:47:37;;;;;;;30.33;22.70;;;18.30;99.90;;;;;;5054481;28;20037;-63
2022/09/13 00:50:10;;;;;;;32.78;25.08;;;17.90;99.90;;;;;;5042017;28;20041;-63
2022/09/13 00:52:39;;;;;;;35.00;23.85;;;18.10;99.90;;;;;;5054499;28;20048;-65
2022/09/13 00:55:12;;;;;;;28.42;22.80;;;18.10;99.90;;;;;;5054384;28;20090;-65
2022/09/13 00:57:39;;;;;;;31.25;23.10;;;18.00;99.90;;;;;;5039554;28;20056;-64
2022/09/13 01:00:13;;;;;;;35.47;24.98;;;17.80;99.90;;;;;;5040013;28;20053;-65
2022/09/13 01:03:06;;;;;;;31.58;23.08;;;18.10;99.90;;;;;;5052737;28;20044;-65
2022/09/13 01:05:37;;;;;;;27.88;21.58;;;18.00;99.90;;;;;;5041041;28;20400;-65
2022/09/13 01:08:09;;;;;;;29.08;21.08;;;17.90;99.90;;;;;;5065096;28;20049;-65
2022/09/13 01:10:39;;;;;;;31.75;22.10;;;18.00;99.90;;;;;;5052850;28;20076;-64
2022/09/13 01:13:13;;;;;;;33.70;22.70;;;17.80;99.90;;;;;;5051744;28;20080;-64
2022/09/13 01:15:39;;;;;;;29.52;21.20;;;17.90;99.90;;;;;;5042309;28;20128;-65
2022/09/13 01:18:07;;;;;;;30.75;22.38;;;17.90;99.90;;;;;;5052232;28;20056;-65
2022/09/13 01:20:59;;;;;;;31.35;21.98;;;18.60;99.90;;;;;;5053390;28;20041;-64
2022/09/13 01:24:05;;;;;;;31.17;22.38;;;17.90;99.90;;;;;;5052263;28;20051;-65
2022/09/13 01:27:01;;;;;;;31.80;22.30;;;18.00;99.90;;;;;;5053851;28;20037;-65
2022/09/13 01:29:43;;;;;;;31.85;22.15;;;17.90;99.90;;;;;;5042374;28;20517;-65
2022/09/13 01:32:34;;;;;;;29.40;21.20;;;17.90;99.90;;;;;;5053712;28;20041;-64
2022/09/13 01:35:38;;;;;;;26.70;20.55;;;18.00;99.90;;;;;;5053574;28;20045;-64
2022/09/13 01:38:03;;;;;;;25.10;19.70;;;18.00;99.90;;;;;;5043134;28;20041;-64
2022/09/13 01:40:57;;;;;;;29.13;21.02;;;17.90;99.90;;;;;;5053596;28;20140;-65
2022/09/13 01:43:40;;;;;;;29.40;20.13;;;17.70;99.90;;;;;;5053382;28;20033;-64
2022/09/13 01:46:13;;;;;;;27.33;21.15;;;17.90;99.90;;;;;;5052015;28;20041;-64
2022/09/13 01:49:27;;;;;;;27.65;19.27;;;18.00;99.90;;;;;;5051908;28;20132;-65
2022/09/13 01:52:29;;;;;;;31.13;20.05;;;17.90;99.90;;;;;;5048071;28;20095;-64
2022/09/13 01:55:28;;;;;;;30.15;20.48;;;17.70;99.90;;;;;;5040760;28;20044;-64
2022/09/13 01:58:08;;;;;;;27.92;18.60;;;17.70;99.90;;;;;;5051913;28;20064;-64
2022/09/13 02:00:43;;;;;;;27.52;18.95;;;17.80;99.90;;;;;;5051696;28;20114;-64
2022/09/13 02:03:11;;;;;;;;;;;17.90;99.90;;;;;;5039764;28;20044;-64
2022/09/13 02:05:49;;;;;;;27.90;18.70;;;18.30;99.90;;;;;;5052094;28;20035;-65
2022/09/13 02:08:19;;;;;;;25.20;17.98;;;18.00;99.90;;;;;;5058075;28;20033;-64
2022/09/13 02:10:50;;;;;;;23.27;17.60;;;17.90;99.90;;;;;;5051819;28;20049;-64
2022/09/13 02:13:21;;;;;;;27.73;18.27;;;18.00;99.90;;;;;;5047065;28;20052;-64
2022/09/13 02:15:53;;;;;;;27.08;18.70;;;17.80;99.90;;;;;;5045294;28;20033;-65
2022/09/13 02:18:33;;;;;;;26.63;18.02;;;17.70;99.90;;;;;;5051464;28;20422;-65
2022/09/13 02:21:03;;;;;;;25.70;17.58;;;17.70;99.90;;;;;;5052779;28;20101;-65
2022/09/13 02:23:36;;;;;;;25.42;18.48;;;17.90;99.90;;;;;;5052884;28;20055;-65
2022/09/13 02:26:04;;;;;;;25.75;17.85;;;17.90;99.90;;;;;;5051244;28;20045;-64
2022/09/13 02:28:35;;;;;;;27.70;18.48;;;17.80;99.90;;;;;;5051597;28;20120;-67
2022/09/13 02:31:03;;;;;;;22.90;16.65;;;17.90;99.90;;;;;;5052835;28;20083;-65
2022/09/13 02:33:34;;;;;;;25.38;16.35;;;19.00;99.90;;;;;;5053078;28;20503;-64
2022/09/13 02:36:07;;;;;;;23.52;16.33;;;18.00;99.90;;;;;;5031515;28;20043;-65
2022/09/13 02:38:54;;;;;;;21.58;16.33;;;18.10;99.90;;;;;;5046489;28;20379;-65
2022/09/13 02:41:43;;;;;;;18.65;14.75;;;17.80;99.90;;;;;;5041427;28;20414;-65
2022/09/13 02:44:25;;;;;;;22.50;15.38;;;17.80;99.90;;;;;;5052606;28;20037;-64
2022/09/13 02:47:10;;;;;;;21.80;15.18;;;17.80;99.90;;;;;;5051355;28;20073;-65
2022/09/13 02:50:02;;;;;;;17.00;13.43;;;17.80;99.90;;;;;;5039278;28;20037;-64
2022/09/13 02:52:39;;;;;;;20.10;14.07;;;17.80;99.90;;;;;;5033951;28;20049;-64
2022/09/13 02:55:23;;;;;;;19.70;13.25;;;17.80;99.90;;;;;;5051367;28;20051;-64
2022/09/13 02:57:58;;;;;;;19.52;14.60;;;18.00;99.90;;;;;;5052457;28;20033;-65
2022/09/13 03:00:24;;;;;;;15.95;12.65;;;17.80;99.90;;;;;;5051039;28;20053;-64
2022/09/13 03:02:51;;;;;;;15.52;11.93;;;17.70;99.90;;;;;;5052433;28;20101;-65
2022/09/13 03:05:17;;;;;;;21.10;12.60;;;17.90;99.90;;;;;;5042700;28;20435;-65
2022/09/13 03:07:42;;;;;;;16.23;11.75;;;17.80;99.90;;;;;;5056451;28;20041;-65
2022/09/13 03:10:13;;;;;;;17.25;12.80;;;17.90;99.90;;;;;;5051138;28;20135;-64
2022/09/13 03:12:48;;;;;;;15.75;12.10;;;17.90;99.90;;;;;;5050838;28;20427;-65
2022/09/13 03:15:31;;;;;;;;;;;18.10;99.90;;;;;;5051523;28;20037;-64
2022/09/13 03:18:22;;;;;;;17.25;11.18;;;17.90;99.90;;;;;;5049970;28;19921;-64
2022/09/13 03:20:50;;;;;;;15.60;10.98;;;17.90;99.90;;;;;;5038874;28;20498;-64
2022/09/13 03:23:34;;;;;;;14.82;9.50;;;17.50;99.90;;;;;;5052239;28;20048;-64
2022/09/13 03:26:28;;;;;;;14.52;9.85;;;17.80;99.90;;;;;;5059706;28;20056;-64
2022/09/13 03:29:09;;;;;;;13.43;9.80;;;17.80;99.90;;;;;;5036625;28;20043;-64
2022/09/13 03:32:00;;;;;;;14.98;9.75;;;17.80;99.90;;;;;;5050904;28;20333;-65
2022/09/13 03:34:54;;;;;;;15.25;9.55;;;17.80;99.90;;;;;;5040037;28;20043;-65
2022/09/13 03:37:32;;;;;;;11.93;9.48;;;17.90;99.90;;;;;;5052455;28;20040;-64
2022/09/13 03:40:14;;;;;;;12.82;8.88;;;18.20;99.90;;;;;;5055974;28;20041;-65
2022/09/13 03:43:00;;;;;;;13.73;9.52;;;18.00;99.90;;;;;;5054258;28;20060;-64
2022/09/13 03:45:32;;;;;;;12.07;9.10;;;18.10;99.90;;;;;;5055508;28;20041;-65
2022/09/13 03:47:59;;;;;;;11.00;8.00;;;18.20;99.90;;;;;;5055754;28;20122;-66
2022/09/13 03:50:25;;;;;;;11.52;9.55;;;18.00;99.90;;;;;;5055655;28;20041;-64
2022/09/13 03:52:58;;;;;;;12.23;8.32;;;18.00;99.90;;;;;;5055338;28;20029;-64
2022/09/13 03:55:24;;;;;;;11.40;7.82;;;18.00;99.90;;;;;;5054240;28;20041;-64
2022/09/13 03:57:50;;;;;;;10.65;7.53;;;17.90;99.90;;;;;;5049620;28;20083;-64
2022/09/13 04:00:17;;;;;;;14.32;8.43;;;17.90;99.90;;;;;;5045593;28;20078;-64
2022/09/13 04:02:43;;;;;;;11.02;7.88;;;18.00;99.90;;;;;;5053812;28;20052;-64
2022/09/13 04:05:08;;;;;;;15.10;8.57;;;18.00;99.90;;;;;;5054279;28;20041;-64
2022/09/13 04:07:34;;;;;;;13.02;8.50;;;18.10;99.90;;;;;;5063835;28;20045;-65
2022/09/13 04:10:00;;;;;;;11.38;8.65;;;18.00;99.90;;;;;;5054166;28;20032;-64
2022/09/13 04:12:27;;;;;;;12.25;8.38;;;18.10;99.90;;;;;;5055040;28;20514;-65
2022/09/13 04:14:52;;;;;;;12.45;8.07;;;18.20;99.90;;;;;;5050069;28;20041;-65
2022/09/13 04:17:18;;;;;;;11.68;7.30;;;17.90;99.90;;;;;;5045844;28;20391;-65
2022/09/13 04:19:45;;;;;;;12.00;6.65;;;18.10;99.90;;;;;;5054943;28;20041;-65
2022/09/13 04:22:12;;;;;;;10.98;6.38;;;17.70;99.90;;;;;;5053603;28;20041;-64
2022/09/13 04:24:38;;;;;;;9.63;5.85;;;18.00;99.90;;;;;;5053657;28;20048;-64
2022/09/13 04:27:05;;;;;;;7.25;5.28;;;18.10;99.90;;;;;;5054796;28;20037;-65
2022/09/13 04:29:31;;;;;;;8.82;5.13;;;18.20;99.90;;;;;;5054685;28;20045;-65
2022/09/13 04:31:56;;;;;;;6.63;4.30;;;18.00;99.90;;;;;;5054549;28;20120;-64
2022/09/13 04:34:22;;;;;;;6.15;3.97;;;18.10;99.90;;;;;;5053315;28;20072;-65
2022/09/13 04:36:49;;;;;;;8.70;4.05;;;18.00;99.90;;;;;;5054507;28;20037;-65
2022/09/13 04:39:14;;;;;;;9.23;4.10;;;18.00;99.90;;;;;;5054547;28;20029;-64
2022/09/13 04:41:44;;;;;;;5.70;3.25;;;18.00;99.90;;;;;;5053152;28;20120;-64
2022/09/13 04:44:10;;;;;;;5.18;3.00;;;18.10;99.90;;;;;;5054198;28;20073;-65
2022/09/13 04:46:36;;;;;;;6.90;3.05;;;17.90;99.90;;;;;;5054535;28;20442;-64
2022/09/13 04:49:02;;;;;;;7.63;2.20;;;18.10;99.90;;;;;;5053798;28;20380;-64
2022/09/13 04:51:28;;;;;;;3.53;2.10;;;17.90;99.90;;;;;;5054386;28;20456;-65
2022/09/13 04:53:54;;;;;;;5.15;1.40;;;17.90;99.90;;;;;;5054192;28;20102;-66
2022/09/13 04:56:22;;;;;;;5.40;1.08;;;18.10;99.90;;;;;;5054336;28;20033;-65
2022/09/13 04:58:52;;;;;;;4.50;1.40;;;17.80;99.90;;;;;;5052930;28;20053;-65
2022/09/13 05:01:18;;;;;;;4.70;1.60;;;17.90;99.90;;;;;;5053840;28;20148;-65
2022/09/13 05:03:43;;;;;;;4.35;1.27;;;17.90;99.90;;;;;;5052882;28;20538;-64
2022/09/13 05:06:16;;;;;;;2.00;1.20;;;18.00;99.90;;;;;;5052559;28;20041;-64
2022/09/13 05:08:43;;;;;;;8.20;2.63;;;17.80;99.90;;;;;;5052750;28;20036;-64
2022/09/13 05:11:08;;;;;;;3.92;1.63;;;17.70;99.90;;;;;;5053591;28;20076;-64
2022/09/13 05:13:35;;;;;;;3.47;2.25;;;17.90;99.90;;;;;;5053862;28;20071;-65
2022/09/13 05:16:04;;;;;;;4.28;2.17;;;17.90;99.90;;;;;;5052484;28;20506;-65
2022/09/13 05:18:35;;;;;;;4.22;2.05;;;17.70;99.90;;;;;;5035696;28;20089;-64
2022/09/13 05:21:02;;;;;;;5.93;2.47;;;17.70;99.90;;;;;;5053846;28;20048;-64
2022/09/13 05:23:30;;;;;;;5.32;1.88;;;17.60;99.90;;;;;;5052373;28;20051;-64
2022/09/13 05:25:57;;;;;;;4.05;1.73;;;17.70;99.90;;;;;;5052022;28;20510;-64
2022/09/13 05:28:23;;;;;;;6.57;2.08;;;17.80;99.90;;;;;;5038306;28;20128;-64
2022/09/13 05:31:17;;;;;;;2.72;1.50;;;17.70;99.90;;;;;;5050017;28;20029;-63
2022/09/13 05:33:44;;;;;;;5.80;1.50;;;17.80;99.90;;;;;;5039695;28;20076;-64
2022/09/13 05:36:09;;;;;;;3.97;1.45;;;17.80;99.90;;;;;;5052092;28;20037;-64
2022/09/13 05:38:35;;;;;;;6.90;1.73;;;17.60;99.90;;;;;;5049705;28;20037;-64
2022/09/13 05:41:03;;;;;;;3.92;1.83;;;15.70;99.90;;;;;;5043972;28;20041;-66
2022/09/13 05:43:31;;;;;;;5.43;1.70;;;17.80;99.90;;;;;;5053184;28;20057;-64
2022/09/13 05:46:01;;;;;;;7.85;2.05;;;17.80;99.90;;;;;;5047675;28;20032;-64
2022/09/13 05:48:28;;;;;;;2.28;1.33;;;17.70;99.90;;;;;;5051906;28;20091;-64
2022/09/13 05:50:53;;;;;;;4.63;1.55;;;17.60;99.90;;;;;;5044051;28;20033;-66
2022/09/13 05:53:19;;;;;;;3.50;1.52;;;17.60;99.90;;;;;;5051992;28;20491;-64
2022/09/13 05:55:45;;;;;;;9.20;1.70;;;17.80;99.90;;;;;;5053143;28;20036;-65
2022/09/13 05:58:10;;;;;;;7.05;1.80;;;17.80;99.90;;;;;;5052919;28;20120;-65
2022/09/13 06:00:36;;;;;;;4.80;1.63;;;17.70;99.90;;;;;;5050971;28;20116;-65
2022/09/13 06:03:02;;;;;;;4.57;1.52;;;17.50;99.90;;;;;;5052756;28;20483;-65
2022/09/13 06:05:28;;;;;;;6.85;1.83;;;17.90;99.90;;;;;;5051367;28;20043;-65
2022/09/13 06:07:53;;;;;;;4.82;1.60;;;17.60;99.90;;;;;;5052700;28;20029;-64
2022/09/13 06:10:19;;;;;;;6.45;3.10;;;17.70;99.90;;;;;;5052416;28;20076;-64
2022/09/13 06:12:45;;;;;;;3.78;1.58;;;17.50;99.90;;;;;;5051799;28;20112;-64
2022/09/13 06:15:11;;;;;;;3.80;1.40;;;17.80;99.90;;;;;;5051988;28;20514;-64
2022/09/13 06:17:37;;;;;;;4.03;1.88;;;17.70;99.90;;;;;;5050743;28;20466;-64
2022/09/13 06:20:03;;;;;;;4.53;2.00;;;17.60;99.90;;;;;;5052102;28;20067;-67
2022/09/13 06:22:32;;;;;;;4.75;1.70;;;17.90;99.90;;;;;;5048375;28;20071;-63
2022/09/13 06:24:58;;;;;;;4.82;2.03;;;17.90;99.90;;;;;;5052527;28;20116;-64
2022/09/13 06:27:24;;;;;;;6.22;2.35;;;17.50;99.90;;;;;;5047774;28;20167;-63
2022/09/13 06:29:49;;;;;;;4.03;1.50;;;17.90;99.90;;;;;;5047767;28;20120;-64
2022/09/13 06:32:15;;;;;;;5.50;2.00;;;17.60;99.90;;;;;;5052628;28;20041;-64
2022/09/13 06:34:41;;;;;;;6.57;2.10;;;17.80;99.90;;;;;;5051203;28;20487;-64
2022/09/13 06:37:06;;;;;;;6.05;1.85;;;17.70;99.90;;;;;;5052410;28;20119;-63
2022/09/13 06:39:33;;;;;;;8.13;1.73;;;17.80;99.90;;;;;;5052750;28;20126;-65
2022/09/13 06:41:59;;;;;;;4.10;1.30;;;17.80;99.90;;;;;;5052462;28;20040;-65
2022/09/13 06:44:24;;;;;;;3.67;1.48;;;17.80;99.90;;;;;;5034718;28;20099;-63
2022/09/13 06:46:50;;;;;;;3.42;1.38;;;17.60;99.90;;;;;;5052097;28;20037;-64
2022/09/13 06:49:15;;;;;;;3.28;1.38;;;17.70;99.90;;;;;;5051019;28;20040;-64
2022/09/13 06:51:41;;;;;;;6.40;1.60;;;17.80;99.90;;;;;;5052353;28;20087;-65
2022/09/13 06:54:07;;;;;;;5.68;1.65;;;17.90;99.90;;;;;;5051107;28;20061;-64
2022/09/13 06:56:35;;;;;;;8.88;1.67;;;17.90;99.90;;;;;;5052642;28;20110;-65
2022/09/13 06:59:03;;;;;;;5.30;1.67;;;17.70;99.90;;;;;;5050883;28;20490;-64
2022/09/13 07:01:31;;;;;;;6.25;1.70;;;17.90;99.90;;;;;;5050142;28;20053;-64
2022/09/13 07:04:00;;;;;;;6.60;1.75;;;17.80;99.90;;;;;;5050979;28;20442;-66
2022/09/13 07:06:29;;;;;;;6.50;1.98;;;17.80;99.90;;;;;;5052523;28;20041;-64
2022/09/13 07:08:56;;;;;;;4.45;1.73;;;18.10;99.90;;;;;;5051757;28;20033;-64
2022/09/13 07:11:24;;;;;;;7.85;1.25;;;18.00;99.90;;;;;;5052891;28;20048;-64
2022/09/13 07:13:52;;;;;;;4.15;1.40;;;17.90;99.90;;;;;;5054664;28;20056;-63
2022/09/13 07:16:19;;;;;;;3.53;1.40;;;18.20;99.90;;;;;;5054828;28;20037;-64
2022/09/13 07:18:53;;;;;;;5.80;1.20;;;18.00;99.90;;;;;;5054462;28;20040;-64
2022/09/13 07:21:21;;;;;;;2.95;1.38;;;18.20;99.90;;;;;;5054964;28;20071;-63
2022/09/13 07:23:47;;;;;;;9.38;2.03;;;18.40;99.90;;;;;;5050791;28;20080;-64
2022/09/13 07:26:12;;;;;;;5.57;1.10;;;18.30;99.90;;;;;;5046112;28;20501;-64
2022/09/13 07:28:41;;;;;;;8.88;1.17;;;18.40;99.90;;;;;;5055206;28;20080;-65
2022/09/13 07:31:08;;;;;;;5.10;1.20;;;18.60;99.90;;;;;;5052129;28;20091;-64
2022/09/13 07:33:33;;;;;;;6.13;0.98;;;18.60;99.90;;;;;;5036177;28;20060;-62
2022/09/13 07:36:01;;;;;;;5.40;1.25;;;18.80;99.90;;;;;;5037865;28;20597;-64
2022/09/13 07:38:26;;;;;;;5.97;1.33;;;18.60;99.90;;;;;;5040721;28;20096;-64
2022/09/13 07:40:54;;;;;;;4.07;1.20;;;19.10;99.90;;;;;;5037177;28;20041;-64
2022/09/13 07:43:20;;;;;;;4.85;1.35;;;19.10;99.90;;;;;;5037952;28;20041;-66
2022/09/13 07:45:46;;;;;;;4.43;1.17;;;19.20;99.90;;;;;;5037940;28;20502;-65
2022/09/13 07:48:11;;;;;;;6.30;1.02;;;19.50;99.90;;;;;;5040989;28;20033;-65
2022/09/13 07:50:37;;;;;;;3.58;1.05;;;19.40;99.90;;;;;;5036311;28;20052;-65
2022/09/13 07:53:03;;;;;;;3.60;0.60;;;19.40;99.90;;;;;;5038644;28;20049;-63
2022/09/13 07:55:29;;;;;;;3.80;0.60;;;19.50;99.90;;;;;;5037013;28;20080;-63
2022/09/13 07:57:54;;;;;;;4.00;0.73;;;19.50;99.90;;;;;;5039932;28;20061;-66
2022/09/13 08:00:20;;;;;;;2.60;0.50;;;19.60;99.90;;;;;;5035731;28;20436;-64
2022/09/13 08:02:46;;;;;;;6.03;0.95;;;19.50;99.90;;;;;;5048833;28;20091;-63
2022/09/13 08:05:13;;;;;;;3.13;0.77;;;19.60;99.90;;;;;;5043834;28;20090;-63
2022/09/13 08:07:38;;;;;;;4.75;0.80;;;19.50;99.90;;;;;;5043905;28;20529;-64
2022/09/13 08:10:04;;;;;;;3.40;0.47;;;19.50;99.90;;;;;;5040148;28;20033;-64
2022/09/13 08:12:30;;;;;;;2.97;0.60;;;19.40;99.90;;;;;;5038628;28;20045;-64
2022/09/13 08:14:55;;;;;;;1.58;0.45;;;19.40;99.90;;;;;;5039181;28;20034;-65
2022/09/13 08:17:21;;;;;;;4.75;0.85;;;19.00;99.90;;;;;;5039173;28;20053;-65
2022/09/13 08:19:46;;;;;;;2.95;0.45;;;19.20;99.90;;;;;;5034799;28;20041;-63
2022/09/13 08:22:12;;;;;;;5.15;0.60;;;19.20;99.90;;;;;;5041319;28;20064;-63
2022/09/13 08:24:37;;;;;;;6.47;0.70;;;19.40;99.90;;;;;;5037514;28;20030;-64
2022/09/13 08:27:03;;;;;;;6.43;0.85;;;19.30;99.90;;;;;;5037840;28;20067;-64
2022/09/13 08:29:29;;;;;;;6.30;1.00;;;19.50;99.90;;;;;;5036458;28;20029;-65
2022/09/13 08:31:54;;;;;;;3.25;0.57;;;19.30;99.90;;;;;;5040419;28;20067;-65
2022/09/13 08:34:20;;;;;;;5.28;0.85;;;19.30;99.90;;;;;;5037754;28;20124;-63
2022/09/13 08:36:46;;;;;;;3.25;0.57;;;19.30;99.90;;;;;;5038425;28;20396;-65
2022/09/13 08:39:12;;;;;;;5.45;0.95;;;19.20;99.90;;;;;;5037527;28;20037;-64
2022/09/13 08:41:38;;;;;;;3.88;0.70;;;19.30;99.90;;;;;;5039063;28;20041;-64
2022/09/13 08:44:28;;;;;;;2.75;0.50;;;19.10;99.90;;;;;;5033813;28;20052;-67
2022/09/13 08:46:58;;;;;;;2.30;0.88;;;19.30;99.90;;;;;;5038748;28;20055;-64
2022/09/13 08:49:35;;;;;;;4.72;1.77;;;19.10;99.90;;;;;;5051147;28;20440;-64
2022/09/13 08:52:37;;;;;;;8.55;1.60;;;19.60;99.90;;;;;;5036703;28;20041;-64
2022/09/13 08:55:31;;;;;;;4.95;0.57;;;19.40;99.90;;;;;;5051366;28;20094;-64
2022/09/13 08:58:26;;;;;;;3.05;0.40;;;19.70;99.90;;;;;;5052395;28;20040;-63
2022/09/13 09:01:06;;;;;;;2.55;0.60;;;19.70;99.90;;;;;;5052782;28;20124;-64
2022/09/13 09:03:51;;;;;;;3.13;0.57;;;19.90;99.90;;;;;;5054219;28;20052;-63
2022/09/13 09:06:16;;;;;;;8.38;0.50;;;20.60;99.90;;;;;;5054728;28;20491;-63
2022/09/13 09:08:50;;;;;;;4.35;0.50;;;20.40;99.90;;;;;;5064027;28;20063;-64
2022/09/13 09:11:30;;;;;;;7.93;0.50;;;20.60;99.90;;;;;;5035835;28;20090;-63
2022/09/13 09:14:19;;;;;;;4.25;0.57;;;20.70;99.90;;;;;;5052790;28;20087;-64
2022/09/13 09:16:50;;;;;;;1.65;0.30;;;20.70;99.90;;;;;;5053270;28;20116;-62
2022/09/13 09:19:27;;;;;;;4.38;0.60;;;21.00;99.90;;;;;;5052380;28;20067;-63
2022/09/13 09:21:52;;;;;;;4.13;0.60;;;20.90;99.90;;;;;;5052470;28;20513;-63
2022/09/13 09:24:24;;;;;;;5.90;0.50;;;21.10;99.90;;;;;;5053824;28;20028;-63
2022/09/13 09:26:51;;;;;;;3.13;0.43;;;21.10;99.90;;;;;;5050826;28;20124;-63
2022/09/13 09:29:24;;;;;;;4.95;0.60;;;21.00;99.90;;;;;;5053493;28;20030;-63
2022/09/13 09:32:08;;;;;;;2.10;0.40;;;20.80;99.90;;;;;;5039258;28;20049;-63
2022/09/13 09:34:41;;;;;;;4.38;0.40;;;20.90;99.90;;;;;;5037708;28;20033;-63
2022/09/13 09:37:23;;;;;;;3.65;0.40;;;21.10;99.90;;;;;;5048325;28;20124;-63
2022/09/13 09:39:50;;;;;;;5.72;0.90;;;21.40;99.90;;;;;;5043460;28;20120;-64
2022/09/13 09:42:27;;;;;;;3.17;0.40;;;21.50;99.90;;;;;;5046928;28;20048;-63
2022/09/13 09:45:01;;;;;;;4.05;0.47;;;21.80;99.90;;;;;;5041917;28;20041;-64
2022/09/13 09:47:49;;;;;;;5.88;0.70;;;21.80;99.90;;;;;;5049197;28;20041;-63
2022/09/13 09:50:19;;;;;;;2.03;0.70;;;22.00;99.90;;;;;;5043863;28;20047;-63
2022/09/13 09:52:52;;;;;;;5.63;0.60;;;21.90;99.90;;;;;;5038034;28;20049;-62
2022/09/13 09:55:29;;;;;;;2.38;0.50;;;23.30;99.90;;;;;;5044862;28;20095;-62
2022/09/13 09:58:03;;;;;;;3.45;0.30;;;21.80;99.90;;;;;;5048259;28;20053;-63
2022/09/13 10:00:34;;;;;;;3.80;0.40;;;22.00;99.90;;;;;;5049363;28;20049;-62
2022/09/13 10:03:03;;;;;;;3.72;0.73;;;22.00;99.90;;;;;;5050535;28;20052;-63
2022/09/13 10:05:33;;;;;;;3.65;0.45;;;22.30;99.90;;;;;;5051300;28;20055;-63
2022/09/13 10:08:05;;;;;;;2.10;0.30;;;22.10;99.90;;;;;;5054039;28;20033;-63
2022/09/13 10:10:41;;;;;;;4.53;0.70;;;22.30;99.90;;;;;;5051784;28;20044;-62
2022/09/13 10:13:19;;;;;;;3.03;0.30;;;22.40;99.90;;;;;;5050310;28;20041;-64
2022/09/13 10:15:56;;;;;;;5.22;0.55;;;22.50;99.90;;;;;;5032473;28;20048;-63
2022/09/13 10:18:23;;;;;;;3.72;0.30;;;22.40;99.90;;;;;;5050473;28;20055;-63
2022/09/13 10:21:02;;;;;;;3.53;0.22;;;22.40;99.90;;;;;;5052431;28;20495;-63
2022/09/13 10:23:29;;;;;;;8.88;0.60;;;22.30;99.90;;;;;;5046600;28;20499;-62
2022/09/13 10:26:02;;;;;;;9.30;0.55;;;22.30;99.90;;;;;;5038785;28;20492;-64
2022/09/13 10:28:31;;;;;;;4.63;0.40;;;21.90;99.90;;;;;;5035554;28;20129;-62
2022/09/13 10:31:03;;;;;;;6.05;0.90;;;21.90;99.90;;;;;;5035194;28;20372;-63
2022/09/13 10:33:33;;;;;;;4.22;0.85;;;21.70;99.90;;;;;;5038401;28;20569;-63
2022/09/13 10:36:06;;;;;;;3.45;0.57;;;21.70;99.90;;;;;;5051272;28;20063;-63
2022/09/13 10:38:40;;;;;;;1.70;0.40;;;21.70;99.90;;;;;;5044472;28;20048;-63
2022/09/13 10:41:10;;;;;;;5.97;0.30;;;21.70;99.90;;;;;;5051419;28;20033;-63
2022/09/13 10:43:36;;;;;;;2.83;0.40;;;21.70;99.90;;;;;;5052782;28;20095;-64
2022/09/13 10:46:05;;;;;;;4.82;0.65;;;21.60;99.90;;;;;;5052448;28;20034;-62
2022/09/13 10:48:44;;;;;;;4.13;0.40;;;21.30;99.90;;;;;;5055499;28;20087;-63
2022/09/13 10:51:25;;;;;;;3.65;0.40;;;21.40;99.90;;;;;;5055720;28;20037;-62
2022/09/13 10:54:10;;;;;;;3.97;0.90;;;21.40;99.90;;;;;;5056479;28;20090;-63
2022/09/13 10:56:36;;;;;;;2.95;0.30;;;21.30;99.90;;;;;;5055037;28;20040;-63
2022/09/13 10:59:24;;;;;;;5.82;0.57;;;21.40;99.90;;;;;;5056420;28;20120;-63
2022/09/13 11:02:05;;;;;;;2.63;0.50;;;21.20;99.90;;;;;;5044745;28;20519;-63
2022/09/13 11:04:33;;;;;;;4.15;0.40;;;20.90;99.90;;;;;;5056147;28;20037;-63
2022/09/13 11:07:08;;;;;;;5.25;0.68;;;21.10;99.90;;;;;;5062262;28;20494;-63
2022/09/13 11:09:56;;;;;;;5.53;0.35;;;21.30;99.90;;;;;;5058975;28;20100;-63
2022/09/13 11:12:50;;;;;;;6.50;0.70;;;21.40;99.90;;;;;;5056300;28;20112;-62
2022/09/13 11:15:33;;;;;;;7.35;0.60;;;21.20;99.90;;;;;;5033489;28;20126;-63
2022/09/13 11:18:18;;;;;;;4.20;0.40;;;21.30;99.90;;;;;;5054861;28;20057;-64
2022/09/13 11:20:56;;;;;;;5.63;0.77;;;21.30;99.90;;;;;;5058424;28;20045;-62
2022/09/13 11:23:59;;;;;;;4.32;0.52;;;21.10;99.90;;;;;;5055824;28;20491;-63
2022/09/13 11:26:36;;;;;;;6.47;0.60;;;21.20;99.90;;;;;;5056402;28;20458;-62
2022/09/13 11:29:14;;;;;;;5.80;0.47;;;20.80;99.90;;;;;;5056061;28;20037;-61
2022/09/13 11:32:12;;;;;;;8.48;0.60;;;21.10;99.90;;;;;;5054644;28;20099;-62
2022/09/13 11:35:13;;;;;;;3.58;0.70;;;21.30;99.90;;;;;;5044687;28;20526;-62
2022/09/13 11:38:03;;;;;;;3.63;0.45;;;21.10;99.90;;;;;;5041164;28;20044;-62
2022/09/13 11:41:04;;;;;;;5.75;0.80;;;21.00;99.90;;;;;;5055592;28;20538;-62
2022/09/13 11:44:03;;;;;;;3.20;0.35;;;21.10;99.90;;;;;;5053149;28;20059;-61
2022/09/13 11:46:31;;;;;;;4.00;0.47;;;21.20;99.90;;;;;;5053287;28;20087;-63
2022/09/13 11:49:34;;;;;;;4.88;0.40;;;21.30;99.90;;;;;;5053585;28;20487;-63
2022/09/13 11:52:20;;;;;;;2.53;0.32;;;21.10;99.90;;;;;;5054097;28;20076;-63
2022/09/13 11:54:55;;;;;;;5.35;0.73;;;21.20;99.90;;;;;;5041377;28;20087;-62
2022/09/13 11:57:28;;;;;;;6.13;0.68;;;21.20;99.90;;;;;;5054000;28;20047;-62
2022/09/13 12:00:14;;;;;;;8.88;1.52;;;21.40;99.90;;;;;;5054617;28;20049;-62
2022/09/13 12:02:59;;;;;;;5.80;0.60;;;21.30;99.90;;;;;;5055051;28;20511;-62
2022/09/13 12:05:30;;;;;;;4.13;0.40;;;21.10;99.90;;;;;;5054111;28;20045;-62
2022/09/13 12:08:05;;;;;;;4.00;0.50;;;21.10;99.90;;;;;;5066952;28;20075;-62
2022/09/13 12:10:51;;;;;;;3.13;0.38;;;21.20;99.90;;;;;;5055373;28;20033;-62
2022/09/13 12:13:35;;;;;;;2.80;0.47;;;21.20;99.90;;;;;;5054094;28;20041;-63
2022/09/13 12:16:11;;;;;;;5.07;0.40;;;21.40;99.90;;;;;;5055312;28;20037;-63
2022/09/13 12:18:48;;;;;;;5.68;0.65;;;21.00;99.90;;;;;;5053714;28;20047;-62
2022/09/13 12:21:19;;;;;;;5.40;0.65;;;21.30;99.90;;;;;;5055137;28;20053;-61
2022/09/13 12:24:00;;;;;;;4.72;1.08;;;21.20;99.90;;;;;;5054932;28;20033;-62
2022/09/13 12:26:40;;;;;;;4.90;0.50;;;21.20;99.90;;;;;;5055264;28;20033;-62
2022/09/13 12:29:35;;;;;;;4.50;0.65;;;21.00;99.90;;;;;;5053471;28;20045;-61
2022/09/13 12:32:04;;;;;;;3.50;0.50;;;20.90;99.90;;;;;;5053469;28;20041;-61
2022/09/13 12:34:51;;;;;;;6.38;1.08;;;21.00;99.90;;;;;;5053895;28;20626;-62
2022/09/13 12:37:40;;;;;;;5.75;0.40;;;20.90;99.90;;;;;;5053431;28;20372;-63
2022/09/13 12:40:28;;;;;;;4.10;0.57;;;20.90;99.90;;;;;;5053430;28;20095;-62
2022/09/13 12:43:11;;;;;;;4.47;0.30;;;20.90;99.90;;;;;;5040831;28;20447;-63
2022/09/13 12:46:09;;;;;;;4.95;0.60;;;21.20;99.90;;;;;;5022719;28;20130;-62
2022/09/13 12:49:05;;;;;;;2.90;0.40;;;21.10;99.90;;;;;;5047699;28;20059;-62
2022/09/13 12:51:47;;;;;;;3.20;0.85;;;21.20;99.90;;;;;;5043059;28;20079;-63
2022/09/13 12:54:49;;;;;;;6.63;0.60;;;21.00;99.90;;;;;;5054309;28;20494;-62
2022/09/13 12:57:35;;;;;;;4.80;0.50;;;20.90;99.90;;;;;;5054414;28;20037;-62
2022/09/13 13:00:23;;;;;;;2.42;0.52;;;20.90;99.90;;;;;;5041277;28;20120;-62
2022/09/13 13:02:48;;;;;;;7.13;0.70;;;20.80;99.90;;;;;;5049488;28;20049;-62
2022/09/13 13:05:35;;;;;;;3.05;0.38;;;21.00;99.90;;;;;;5042298;28;20394;-62
2022/09/13 13:08:04;;;;;;;4.80;0.40;;;21.00;99.90;;;;;;5064726;28;20041;-62
2022/09/13 13:10:35;;;;;;;3.75;0.77;;;21.20;99.90;;;;;;5053658;28;20062;-63
2022/09/13 13:13:28;;;;;;;5.20;0.88;;;21.00;99.90;;;;;;5053997;28;20041;-62